sensor_id;sensor_type;location;lat;lon;timestamp;P1;durP1;ratioP1;P2;durP2;ratioP2
15476;SDS011;7840;42.702;23.296;2023-04-03T00:00:41;9.00;;;3.77;;
15476;SDS011;7840;42.702;23.296;2023-04-03T00:03:08;5.13;;;3.97;;
15476;SDS011;7840;42.702;23.296;2023-04-03T00:05:35;5.77;;;4.00;;
15476;SDS011;7840;42.702;23.296;2023-04-03T00:08:03;7.07;;;4.50;;
15476;SDS011;7840;42.702;23.296;2023-04-03T00:10:34;8.97;;;5.07;;
15476;SDS011;7840;42.702;23.296;2023-04-03T00:13:02;8.07;;;4.60;;
15476;SDS011;7840;42.702;23.296;2023-04-03T00:15:29;6.77;;;4.40;;
15476;SDS011;7840;42.702;23.296;2023-04-03T00:17:56;10.17;;;4.50;;
15476;SDS011;7840;42.702;23.296;2023-04-03T00:20:24;5.43;;;3.30;;
15476;SDS011;7840;42.702;23.296;2023-04-03T00:22:52;6.43;;;4.10;;
15476;SDS011;7840;42.702;23.296;2023-04-03T00:25:19;3.90;;;3.30;;
15476;SDS011;7840;42.702;23.296;2023-04-03T00:27:48;6.17;;;4.13;;
15476;SDS011;7840;42.702;23.296;2023-04-03T00:30:16;6.77;;;4.70;;
15476;SDS011;7840;42.702;23.296;2023-04-03T00:32:43;6.53;;;5.30;;
15476;SDS011;7840;42.702;23.296;2023-04-03T00:35:11;8.83;;;5.40;;
15476;SDS011;7840;42.702;23.296;2023-04-03T00:37:40;8.70;;;5.10;;
15476;SDS011;7840;42.702;23.296;2023-04-03T00:40:08;8.63;;;5.67;;
15476;SDS011;7840;42.702;23.296;2023-04-03T00:42:36;12.77;;;5.50;;
15476;SDS011;7840;42.702;23.296;2023-04-03T00:45:25;10.27;;;6.53;;
15476;SDS011;7840;42.702;23.296;2023-04-03T00:47:52;10.37;;;5.90;;
15476;SDS011;7840;42.702;23.296;2023-04-03T00:50:20;6.63;;;4.93;;
15476;SDS011;7840;42.702;23.296;2023-04-03T00:52:47;7.93;;;5.13;;
15476;SDS011;7840;42.702;23.296;2023-04-03T00:55:14;7.77;;;4.60;;
15476;SDS011;7840;42.702;23.296;2023-04-03T00:57:42;5.47;;;3.90;;
15476;SDS011;7840;42.702;23.296;2023-04-03T01:00:11;5.37;;;3.80;;
15476;SDS011;7840;42.702;23.296;2023-04-03T01:02:41;4.73;;;3.73;;
15476;SDS011;7840;42.702;23.296;2023-04-03T01:05:08;4.83;;;3.80;;
15476;SDS011;7840;42.702;23.296;2023-04-03T01:07:35;4.47;;;3.57;;
15476;SDS011;7840;42.702;23.296;2023-04-03T01:10:04;5.10;;;4.27;;
15476;SDS011;7840;42.702;23.296;2023-04-03T01:12:32;4.87;;;3.73;;
15476;SDS011;7840;42.702;23.296;2023-04-03T01:15:00;6.60;;;3.97;;
15476;SDS011;7840;42.702;23.296;2023-04-03T01:17:29;5.87;;;3.93;;
15476;SDS011;7840;42.702;23.296;2023-04-03T01:20:09;5.07;;;3.83;;
15476;SDS011;7840;42.702;23.296;2023-04-03T01:22:39;5.20;;;3.60;;
15476;SDS011;7840;42.702;23.296;2023-04-03T01:25:08;4.80;;;3.90;;
15476;SDS011;7840;42.702;23.296;2023-04-03T01:27:35;5.10;;;3.80;;
15476;SDS011;7840;42.702;23.296;2023-04-03T01:30:02;4.60;;;3.40;;
15476;SDS011;7840;42.702;23.296;2023-04-03T01:32:31;4.90;;;3.87;;
15476;SDS011;7840;42.702;23.296;2023-04-03T01:34:58;4.33;;;3.50;;
15476;SDS011;7840;42.702;23.296;2023-04-03T01:37:26;3.90;;;3.20;;
15476;SDS011;7840;42.702;23.296;2023-04-03T01:39:53;5.10;;;3.37;;
15476;SDS011;7840;42.702;23.296;2023-04-03T01:42:20;5.03;;;3.87;;
15476;SDS011;7840;42.702;23.296;2023-04-03T01:44:47;4.73;;;3.40;;
15476;SDS011;7840;42.702;23.296;2023-04-03T01:47:15;4.43;;;3.60;;
15476;SDS011;7840;42.702;23.296;2023-04-03T01:49:43;5.10;;;3.70;;
15476;SDS011;7840;42.702;23.296;2023-04-03T01:52:11;3.93;;;3.40;;
15476;SDS011;7840;42.702;23.296;2023-04-03T01:54:38;4.20;;;3.53;;
15476;SDS011;7840;42.702;23.296;2023-04-03T01:57:05;4.30;;;3.83;;
15476;SDS011;7840;42.702;23.296;2023-04-03T01:59:32;4.17;;;3.23;;
15476;SDS011;7840;42.702;23.296;2023-04-03T02:02:00;5.17;;;3.63;;
15476;SDS011;7840;42.702;23.296;2023-04-03T02:04:27;4.97;;;3.50;;
15476;SDS011;7840;42.702;23.296;2023-04-03T02:06:56;5.37;;;3.20;;
15476;SDS011;7840;42.702;23.296;2023-04-03T02:09:23;3.87;;;3.23;;
15476;SDS011;7840;42.702;23.296;2023-04-03T02:11:51;4.73;;;3.57;;
15476;SDS011;7840;42.702;23.296;2023-04-03T02:14:18;4.17;;;3.37;;
15476;SDS011;7840;42.702;23.296;2023-04-03T02:16:46;4.13;;;3.63;;
15476;SDS011;7840;42.702;23.296;2023-04-03T02:19:14;4.17;;;3.57;;
15476;SDS011;7840;42.702;23.296;2023-04-03T02:21:41;6.27;;;4.17;;
15476;SDS011;7840;42.702;23.296;2023-04-03T02:24:10;6.30;;;3.33;;
15476;SDS011;7840;42.702;23.296;2023-04-03T02:26:37;3.73;;;3.33;;
15476;SDS011;7840;42.702;23.296;2023-04-03T02:29:04;8.03;;;4.27;;
15476;SDS011;7840;42.702;23.296;2023-04-03T02:31:32;8.03;;;4.97;;
15476;SDS011;7840;42.702;23.296;2023-04-03T02:33:59;10.17;;;5.10;;
15476;SDS011;7840;42.702;23.296;2023-04-03T02:36:26;12.13;;;5.13;;
15476;SDS011;7840;42.702;23.296;2023-04-03T02:38:53;9.60;;;4.33;;
15476;SDS011;7840;42.702;23.296;2023-04-03T02:41:22;6.93;;;3.97;;
15476;SDS011;7840;42.702;23.296;2023-04-03T02:43:50;15.03;;;4.70;;
15476;SDS011;7840;42.702;23.296;2023-04-03T02:46:18;11.90;;;4.87;;
15476;SDS011;7840;42.702;23.296;2023-04-03T02:48:45;6.80;;;4.13;;
15476;SDS011;7840;42.702;23.296;2023-04-03T02:51:12;9.10;;;4.93;;
15476;SDS011;7840;42.702;23.296;2023-04-03T02:53:39;5.13;;;4.23;;
15476;SDS011;7840;42.702;23.296;2023-04-03T02:56:07;6.27;;;5.03;;
15476;SDS011;7840;42.702;23.296;2023-04-03T02:58:35;9.60;;;4.93;;
15476;SDS011;7840;42.702;23.296;2023-04-03T03:01:03;7.23;;;4.20;;
15476;SDS011;7840;42.702;23.296;2023-04-03T03:03:30;9.53;;;4.77;;
15476;SDS011;7840;42.702;23.296;2023-04-03T03:06:01;14.50;;;5.63;;
15476;SDS011;7840;42.702;23.296;2023-04-03T03:08:28;13.00;;;5.40;;
15476;SDS011;7840;42.702;23.296;2023-04-03T03:10:56;13.77;;;7.63;;
15476;SDS011;7840;42.702;23.296;2023-04-03T03:13:23;12.63;;;7.77;;
15476;SDS011;7840;42.702;23.296;2023-04-03T03:15:52;11.40;;;6.83;;
15476;SDS011;7840;42.702;23.296;2023-04-03T03:18:19;10.93;;;5.80;;
15476;SDS011;7840;42.702;23.296;2023-04-03T03:20:47;11.20;;;6.80;;
15476;SDS011;7840;42.702;23.296;2023-04-03T03:23:17;14.87;;;6.30;;
15476;SDS011;7840;42.702;23.296;2023-04-03T03:25:45;7.03;;;5.77;;
15476;SDS011;7840;42.702;23.296;2023-04-03T03:28:12;13.93;;;6.17;;
15476;SDS011;7840;42.702;23.296;2023-04-03T03:30:39;12.83;;;5.53;;
15476;SDS011;7840;42.702;23.296;2023-04-03T03:33:08;9.50;;;5.70;;
15476;SDS011;7840;42.702;23.296;2023-04-03T03:35:35;11.60;;;5.57;;
15476;SDS011;7840;42.702;23.296;2023-04-03T03:38:03;9.27;;;4.93;;
15476;SDS011;7840;42.702;23.296;2023-04-03T03:40:30;12.17;;;5.03;;
15476;SDS011;7840;42.702;23.296;2023-04-03T03:42:57;11.27;;;5.50;;
15476;SDS011;7840;42.702;23.296;2023-04-03T03:45:25;11.43;;;5.43;;
15476;SDS011;7840;42.702;23.296;2023-04-03T03:47:54;9.17;;;5.53;;
15476;SDS011;7840;42.702;23.296;2023-04-03T03:50:23;12.40;;;6.00;;
15476;SDS011;7840;42.702;23.296;2023-04-03T03:52:50;14.20;;;6.77;;
15476;SDS011;7840;42.702;23.296;2023-04-03T03:55:17;11.40;;;7.07;;
15476;SDS011;7840;42.702;23.296;2023-04-03T03:57:45;15.83;;;6.27;;
15476;SDS011;7840;42.702;23.296;2023-04-03T04:00:13;14.63;;;6.37;;
15476;SDS011;7840;42.702;23.296;2023-04-03T04:02:40;15.50;;;6.57;;
15476;SDS011;7840;42.702;23.296;2023-04-03T04:05:08;12.53;;;6.30;;
15476;SDS011;7840;42.702;23.296;2023-04-03T04:07:36;19.30;;;6.70;;
15476;SDS011;7840;42.702;23.296;2023-04-03T04:10:04;15.87;;;7.20;;
15476;SDS011;7840;42.702;23.296;2023-04-03T04:12:31;13.20;;;6.63;;
15476;SDS011;7840;42.702;23.296;2023-04-03T04:15:00;17.07;;;6.13;;
15476;SDS011;7840;42.702;23.296;2023-04-03T04:17:28;16.27;;;6.47;;
15476;SDS011;7840;42.702;23.296;2023-04-03T04:19:55;13.23;;;7.53;;
15476;SDS011;7840;42.702;23.296;2023-04-03T04:22:22;9.20;;;6.00;;
15476;SDS011;7840;42.702;23.296;2023-04-03T04:24:51;8.60;;;5.97;;
15476;SDS011;7840;42.702;23.296;2023-04-03T04:27:18;9.30;;;6.80;;
15476;SDS011;7840;42.702;23.296;2023-04-03T04:29:45;15.10;;;7.03;;
15476;SDS011;7840;42.702;23.296;2023-04-03T04:32:13;18.43;;;6.73;;
15476;SDS011;7840;42.702;23.296;2023-04-03T04:34:40;14.03;;;8.77;;
15476;SDS011;7840;42.702;23.296;2023-04-03T04:37:07;23.57;;;7.83;;
15476;SDS011;7840;42.702;23.296;2023-04-03T04:39:35;16.20;;;8.27;;
15476;SDS011;7840;42.702;23.296;2023-04-03T04:42:03;11.57;;;8.50;;
15476;SDS011;7840;42.702;23.296;2023-04-03T04:44:32;11.70;;;8.40;;
15476;SDS011;7840;42.702;23.296;2023-04-03T04:46:59;12.27;;;8.17;;
15476;SDS011;7840;42.702;23.296;2023-04-03T04:49:26;17.80;;;8.50;;
15476;SDS011;7840;42.702;23.296;2023-04-03T04:51:54;11.80;;;8.63;;
15476;SDS011;7840;42.702;23.296;2023-04-03T04:54:21;16.50;;;9.50;;
15476;SDS011;7840;42.702;23.296;2023-04-03T04:56:48;13.17;;;8.67;;
15476;SDS011;7840;42.702;23.296;2023-04-03T04:59:17;15.87;;;9.00;;
15476;SDS011;7840;42.702;23.296;2023-04-03T05:01:44;14.37;;;8.47;;
15476;SDS011;7840;42.702;23.296;2023-04-03T05:04:12;14.63;;;10.77;;
15476;SDS011;7840;42.702;23.296;2023-04-03T05:06:40;18.70;;;11.43;;
15476;SDS011;7840;42.702;23.296;2023-04-03T05:09:07;17.70;;;10.53;;
15476;SDS011;7840;42.702;23.296;2023-04-03T05:11:35;21.27;;;11.43;;
15476;SDS011;7840;42.702;23.296;2023-04-03T05:14:02;21.80;;;10.37;;
15476;SDS011;7840;42.702;23.296;2023-04-03T05:16:33;15.67;;;11.87;;
15476;SDS011;7840;42.702;23.296;2023-04-03T05:19:00;17.33;;;10.70;;
15476;SDS011;7840;42.702;23.296;2023-04-03T05:21:27;12.93;;;9.20;;
15476;SDS011;7840;42.702;23.296;2023-04-03T05:23:57;17.60;;;9.17;;
15476;SDS011;7840;42.702;23.296;2023-04-03T05:26:27;15.73;;;8.53;;
15476;SDS011;7840;42.702;23.296;2023-04-03T05:28:55;13.53;;;8.77;;
15476;SDS011;7840;42.702;23.296;2023-04-03T05:31:22;15.87;;;8.27;;
15476;SDS011;7840;42.702;23.296;2023-04-03T05:33:51;15.83;;;9.07;;
15476;SDS011;7840;42.702;23.296;2023-04-03T05:36:18;12.13;;;8.37;;
15476;SDS011;7840;42.702;23.296;2023-04-03T05:38:46;16.93;;;8.93;;
15476;SDS011;7840;42.702;23.296;2023-04-03T05:41:13;14.13;;;11.43;;
15476;SDS011;7840;42.702;23.296;2023-04-03T05:43:40;25.73;;;13.60;;
15476;SDS011;7840;42.702;23.296;2023-04-03T05:46:09;22.73;;;13.17;;
15476;SDS011;7840;42.702;23.296;2023-04-03T05:48:37;18.93;;;12.57;;
15476;SDS011;7840;42.702;23.296;2023-04-03T05:51:06;17.60;;;11.17;;
15476;SDS011;7840;42.702;23.296;2023-04-03T05:53:35;17.57;;;11.80;;
15476;SDS011;7840;42.702;23.296;2023-04-03T05:56:03;17.40;;;12.03;;
15476;SDS011;7840;42.702;23.296;2023-04-03T05:58:30;24.10;;;12.10;;
15476;SDS011;7840;42.702;23.296;2023-04-03T06:00:58;18.57;;;11.27;;
15476;SDS011;7840;42.702;23.296;2023-04-03T06:03:25;23.00;;;10.80;;
15476;SDS011;7840;42.702;23.296;2023-04-03T06:05:53;16.77;;;10.33;;
15476;SDS011;7840;42.702;23.296;2023-04-03T06:08:21;16.50;;;11.43;;
15476;SDS011;7840;42.702;23.296;2023-04-03T06:10:49;18.23;;;11.93;;
15476;SDS011;7840;42.702;23.296;2023-04-03T06:13:17;21.97;;;12.47;;
15476;SDS011;7840;42.702;23.296;2023-04-03T06:15:47;23.33;;;13.03;;
15476;SDS011;7840;42.702;23.296;2023-04-03T06:18:14;21.03;;;12.53;;
15476;SDS011;7840;42.702;23.296;2023-04-03T06:20:41;21.27;;;12.57;;
15476;SDS011;7840;42.702;23.296;2023-04-03T06:23:09;25.07;;;12.77;;
15476;SDS011;7840;42.702;23.296;2023-04-03T06:25:38;20.10;;;12.77;;
15476;SDS011;7840;42.702;23.296;2023-04-03T06:28:06;22.77;;;12.60;;
15476;SDS011;7840;42.702;23.296;2023-04-03T06:30:34;16.43;;;9.90;;
15476;SDS011;7840;42.702;23.296;2023-04-03T06:33:01;13.23;;;8.83;;
15476;SDS011;7840;42.702;23.296;2023-04-03T06:35:29;13.50;;;9.67;;
15476;SDS011;7840;42.702;23.296;2023-04-03T06:37:59;20.27;;;10.13;;
15476;SDS011;7840;42.702;23.296;2023-04-03T06:40:26;18.63;;;9.77;;
15476;SDS011;7840;42.702;23.296;2023-04-03T06:42:55;16.40;;;9.97;;
15476;SDS011;7840;42.702;23.296;2023-04-03T06:45:22;20.93;;;9.83;;
15476;SDS011;7840;42.702;23.296;2023-04-03T06:47:50;14.73;;;9.37;;
15476;SDS011;7840;42.702;23.296;2023-04-03T06:50:18;18.40;;;10.67;;
15476;SDS011;7840;42.702;23.296;2023-04-03T06:52:45;16.33;;;10.10;;
15476;SDS011;7840;42.702;23.296;2023-04-03T06:55:12;22.07;;;11.30;;
15476;SDS011;7840;42.702;23.296;2023-04-03T06:57:40;19.40;;;10.57;;
15476;SDS011;7840;42.702;23.296;2023-04-03T07:00:10;23.03;;;11.03;;
15476;SDS011;7840;42.702;23.296;2023-04-03T07:02:37;21.80;;;11.33;;
15476;SDS011;7840;42.702;23.296;2023-04-03T07:05:05;13.93;;;9.40;;
15476;SDS011;7840;42.702;23.296;2023-04-03T07:07:32;15.87;;;9.43;;
15476;SDS011;7840;42.702;23.296;2023-04-03T07:10:00;18.47;;;9.23;;
15476;SDS011;7840;42.702;23.296;2023-04-03T07:12:27;24.00;;;10.00;;
15476;SDS011;7840;42.702;23.296;2023-04-03T07:14:55;19.00;;;10.00;;
15476;SDS011;7840;42.702;23.296;2023-04-03T07:17:24;21.13;;;10.87;;
15476;SDS011;7840;42.702;23.296;2023-04-03T07:19:52;15.30;;;10.13;;
15476;SDS011;7840;42.702;23.296;2023-04-03T07:22:19;21.17;;;10.10;;
15476;SDS011;7840;42.702;23.296;2023-04-03T07:24:46;23.33;;;10.47;;
15476;SDS011;7840;42.702;23.296;2023-04-03T07:27:13;17.67;;;10.67;;
15476;SDS011;7840;42.702;23.296;2023-04-03T07:29:41;18.90;;;9.90;;
15476;SDS011;7840;42.702;23.296;2023-04-03T07:32:09;15.13;;;10.03;;
15476;SDS011;7840;42.702;23.296;2023-04-03T07:34:38;13.00;;;9.50;;
15476;SDS011;7840;42.702;23.296;2023-04-03T07:37:05;17.93;;;10.43;;
15476;SDS011;7840;42.702;23.296;2023-04-03T07:39:37;16.40;;;9.33;;
15476;SDS011;7840;42.702;23.296;2023-04-03T07:42:04;14.10;;;7.47;;
15476;SDS011;7840;42.702;23.296;2023-04-03T07:44:32;12.17;;;7.33;;
15476;SDS011;7840;42.702;23.296;2023-04-03T07:47:00;8.97;;;6.83;;
15476;SDS011;7840;42.702;23.296;2023-04-03T07:49:27;10.37;;;6.57;;
15476;SDS011;7840;42.702;23.296;2023-04-03T07:51:56;8.53;;;6.37;;
15476;SDS011;7840;42.702;23.296;2023-04-03T07:54:23;8.43;;;5.93;;
15476;SDS011;7840;42.702;23.296;2023-04-03T07:56:51;9.70;;;7.30;;
15476;SDS011;7840;42.702;23.296;2023-04-03T07:59:18;13.77;;;9.27;;
15476;SDS011;7840;42.702;23.296;2023-04-03T08:01:45;14.00;;;8.30;;
15476;SDS011;7840;42.702;23.296;2023-04-03T08:04:13;10.87;;;7.77;;
15476;SDS011;7840;42.702;23.296;2023-04-03T08:06:40;14.30;;;8.83;;
15476;SDS011;7840;42.702;23.296;2023-04-03T08:09:09;17.88;;;9.07;;
15476;SDS011;7840;42.702;23.296;2023-04-03T08:11:38;14.23;;;7.57;;
15476;SDS011;7840;42.702;23.296;2023-04-03T08:14:05;17.23;;;8.50;;
15476;SDS011;7840;42.702;23.296;2023-04-03T08:16:32;11.88;;;8.30;;
15476;SDS011;7840;42.702;23.296;2023-04-03T08:19:00;14.48;;;8.32;;
15476;SDS011;7840;42.702;23.296;2023-04-03T08:21:27;14.90;;;9.32;;
15476;SDS011;7840;42.702;23.296;2023-04-03T08:23:55;12.25;;;8.52;;
15476;SDS011;7840;42.702;23.296;2023-04-03T08:26:24;12.32;;;9.25;;
15476;SDS011;7840;42.702;23.296;2023-04-03T08:28:51;16.02;;;9.73;;
15476;SDS011;7840;42.702;23.296;2023-04-03T08:31:19;13.57;;;10.02;;
15476;SDS011;7840;42.702;23.296;2023-04-03T08:33:47;15.32;;;9.13;;
15476;SDS011;7840;42.702;23.296;2023-04-03T08:36:19;17.45;;;9.93;;
15476;SDS011;7840;42.702;23.296;2023-04-03T08:38:47;12.68;;;9.20;;
15476;SDS011;7840;42.702;23.296;2023-04-03T08:41:15;17.88;;;9.75;;
15476;SDS011;7840;42.702;23.296;2023-04-03T08:43:49;17.45;;;9.73;;
15476;SDS011;7840;42.702;23.296;2023-04-03T08:46:20;15.30;;;9.38;;
15476;SDS011;7840;42.702;23.296;2023-04-03T08:48:49;14.07;;;8.63;;
15476;SDS011;7840;42.702;23.296;2023-04-03T08:51:22;18.20;;;9.02;;
15476;SDS011;7840;42.702;23.296;2023-04-03T08:53:53;12.73;;;9.65;;
15476;SDS011;7840;42.702;23.296;2023-04-03T08:56:23;11.88;;;9.05;;
15476;SDS011;7840;42.702;23.296;2023-04-03T08:58:55;13.45;;;9.27;;
15476;SDS011;7840;42.702;23.296;2023-04-03T09:01:23;16.60;;;10.13;;
15476;SDS011;7840;42.702;23.296;2023-04-03T09:03:52;14.25;;;10.52;;
15476;SDS011;7840;42.702;23.296;2023-04-03T09:06:20;19.00;;;11.38;;
15476;SDS011;7840;42.702;23.296;2023-04-03T09:08:49;17.65;;;11.77;;
15476;SDS011;7840;42.702;23.296;2023-04-03T09:11:19;22.05;;;11.60;;
15476;SDS011;7840;42.702;23.296;2023-04-03T09:13:49;19.48;;;11.30;;
15476;SDS011;7840;42.702;23.296;2023-04-03T09:16:27;15.98;;;10.18;;
15476;SDS011;7840;42.702;23.296;2023-04-03T09:19:02;20.25;;;10.43;;
15476;SDS011;7840;42.702;23.296;2023-04-03T09:21:31;13.45;;;9.75;;
15476;SDS011;7840;42.702;23.296;2023-04-03T09:24:00;16.10;;;10.07;;
15476;SDS011;7840;42.702;23.296;2023-04-03T09:26:30;22.05;;;10.63;;
15476;SDS011;7840;42.702;23.296;2023-04-03T09:28:59;14.20;;;9.43;;
15476;SDS011;7840;42.702;23.296;2023-04-03T09:31:29;16.98;;;10.15;;
15476;SDS011;7840;42.702;23.296;2023-04-03T09:33:58;18.73;;;10.13;;
15476;SDS011;7840;42.702;23.296;2023-04-03T09:39:10;17.65;;;9.43;;
15476;SDS011;7840;42.702;23.296;2023-04-03T09:41:38;16.15;;;10.35;;
15476;SDS011;7840;42.702;23.296;2023-04-03T09:44:17;16.73;;;10.27;;
15476;SDS011;7840;42.702;23.296;2023-04-03T09:46:48;14.10;;;10.75;;
15476;SDS011;7840;42.702;23.296;2023-04-03T09:49:16;15.25;;;10.68;;
15476;SDS011;7840;42.702;23.296;2023-04-03T09:51:44;18.23;;;12.18;;
15476;SDS011;7840;42.702;23.296;2023-04-03T09:57:10;13.63;;;11.10;;
15476;SDS011;7840;42.702;23.296;2023-04-03T09:59:43;19.23;;;11.02;;
15476;SDS011;7840;42.702;23.296;2023-04-03T10:02:22;21.38;;;10.95;;
15476;SDS011;7840;42.702;23.296;2023-04-03T10:04:50;20.13;;;11.10;;
15476;SDS011;7840;42.702;23.296;2023-04-03T10:07:31;17.10;;;10.25;;
15476;SDS011;7840;42.702;23.296;2023-04-03T10:09:59;16.55;;;10.48;;
15476;SDS011;7840;42.702;23.296;2023-04-03T10:12:30;15.55;;;10.30;;
15476;SDS011;7840;42.702;23.296;2023-04-03T10:14:58;14.43;;;10.57;;
15476;SDS011;7840;42.702;23.296;2023-04-03T10:17:30;13.68;;;9.27;;
15476;SDS011;7840;42.702;23.296;2023-04-03T10:20:02;11.77;;;8.52;;
15476;SDS011;7840;42.702;23.296;2023-04-03T10:22:37;14.07;;;8.63;;
15476;SDS011;7840;42.702;23.296;2023-04-03T10:25:10;18.77;;;10.18;;
15476;SDS011;7840;42.702;23.296;2023-04-03T10:27:42;17.58;;;9.95;;
15476;SDS011;7840;42.702;23.296;2023-04-03T10:30:19;19.80;;;10.85;;
15476;SDS011;7840;42.702;23.296;2023-04-03T10:32:57;16.52;;;8.95;;
15476;SDS011;7840;42.702;23.296;2023-04-03T10:35:30;14.18;;;8.65;;
15476;SDS011;7840;42.702;23.296;2023-04-03T10:38:01;13.45;;;7.65;;
15476;SDS011;7840;42.702;23.296;2023-04-03T10:40:33;11.32;;;6.90;;
15476;SDS011;7840;42.702;23.296;2023-04-03T10:43:03;13.35;;;7.70;;
15476;SDS011;7840;42.702;23.296;2023-04-03T10:45:31;10.38;;;5.82;;
15476;SDS011;7840;42.702;23.296;2023-04-03T10:48:07;10.30;;;6.45;;
15476;SDS011;7840;42.702;23.296;2023-04-03T10:50:40;11.88;;;4.78;;
15476;SDS011;7840;42.702;23.296;2023-04-03T10:53:12;8.57;;;3.97;;
15476;SDS011;7840;42.702;23.296;2023-04-03T10:55:46;6.25;;;3.60;;
15476;SDS011;7840;42.702;23.296;2023-04-03T10:58:18;9.35;;;5.38;;
15476;SDS011;7840;42.702;23.296;2023-04-03T11:00:48;7.72;;;6.00;;
15476;SDS011;7840;42.702;23.296;2023-04-03T11:03:22;10.85;;;5.45;;
15476;SDS011;7840;42.702;23.296;2023-04-03T11:05:52;8.32;;;4.90;;
15476;SDS011;7840;42.702;23.296;2023-04-03T11:08:24;9.55;;;4.95;;
15476;SDS011;7840;42.702;23.296;2023-04-03T11:10:53;10.95;;;5.47;;
15476;SDS011;7840;42.702;23.296;2023-04-03T11:13:22;9.32;;;5.35;;
15476;SDS011;7840;42.702;23.296;2023-04-03T11:15:51;9.70;;;4.30;;
15476;SDS011;7840;42.702;23.296;2023-04-03T11:18:22;12.07;;;3.90;;
15476;SDS011;7840;42.702;23.296;2023-04-03T11:20:56;6.65;;;3.95;;
15476;SDS011;7840;42.702;23.296;2023-04-03T11:23:26;5.57;;;3.78;;
15476;SDS011;7840;42.702;23.296;2023-04-03T11:26:05;5.72;;;3.80;;
15476;SDS011;7840;42.702;23.296;2023-04-03T11:28:34;4.93;;;3.92;;
15476;SDS011;7840;42.702;23.296;2023-04-03T11:31:02;4.50;;;3.65;;
15476;SDS011;7840;42.702;23.296;2023-04-03T11:33:36;4.82;;;3.63;;
15476;SDS011;7840;42.702;23.296;2023-04-03T11:36:08;6.22;;;3.75;;
15476;SDS011;7840;42.702;23.296;2023-04-03T11:38:38;8.38;;;3.50;;
15476;SDS011;7840;42.702;23.296;2023-04-03T11:41:08;3.50;;;3.20;;
15476;SDS011;7840;42.702;23.296;2023-04-03T11:43:39;4.80;;;3.55;;
15476;SDS011;7840;42.702;23.296;2023-04-03T11:46:07;6.45;;;3.63;;
15476;SDS011;7840;42.702;23.296;2023-04-03T11:48:44;4.10;;;3.70;;
15476;SDS011;7840;42.702;23.296;2023-04-03T11:53:52;5.30;;;3.42;;
15476;SDS011;7840;42.702;23.296;2023-04-03T11:56:29;6.10;;;4.10;;
15476;SDS011;7840;42.702;23.296;2023-04-03T11:59:14;5.70;;;3.60;;
15476;SDS011;7840;42.702;23.296;2023-04-03T12:01:44;4.40;;;3.35;;
15476;SDS011;7840;42.702;23.296;2023-04-03T12:04:13;3.60;;;3.30;;
15476;SDS011;7840;42.702;23.296;2023-04-03T12:06:53;3.90;;;2.97;;
15476;SDS011;7840;42.702;23.296;2023-04-03T12:09:34;4.38;;;3.13;;
15476;SDS011;7840;42.702;23.296;2023-04-03T12:14:44;3.43;;;2.83;;
15476;SDS011;7840;42.702;23.296;2023-04-03T12:17:16;3.77;;;2.67;;
15476;SDS011;7840;42.702;23.296;2023-04-03T12:19:47;3.17;;;2.80;;
15476;SDS011;7840;42.702;23.296;2023-04-03T12:22:15;2.63;;;2.42;;
15476;SDS011;7840;42.702;23.296;2023-04-03T12:24:46;3.50;;;2.80;;
15476;SDS011;7840;42.702;23.296;2023-04-03T12:27:21;6.60;;;3.30;;
15476;SDS011;7840;42.702;23.296;2023-04-03T12:29:51;3.60;;;3.27;;
15476;SDS011;7840;42.702;23.296;2023-04-03T12:32:24;3.50;;;3.20;;
15476;SDS011;7840;42.702;23.296;2023-04-03T12:34:58;5.30;;;3.80;;
15476;SDS011;7840;42.702;23.296;2023-04-03T12:37:38;5.27;;;3.37;;
15476;SDS011;7840;42.702;23.296;2023-04-03T12:40:09;4.10;;;3.70;;
15476;SDS011;7840;42.702;23.296;2023-04-03T12:42:51;5.23;;;3.50;;
15476;SDS011;7840;42.702;23.296;2023-04-03T12:45:23;4.00;;;3.40;;
15476;SDS011;7840;42.702;23.296;2023-04-03T12:47:51;5.73;;;3.60;;
15476;SDS011;7840;42.702;23.296;2023-04-03T12:50:25;5.43;;;4.00;;
15476;SDS011;7840;42.702;23.296;2023-04-03T12:52:56;4.63;;;4.23;;
15476;SDS011;7840;42.702;23.296;2023-04-03T12:55:25;4.90;;;4.40;;
15476;SDS011;7840;42.702;23.296;2023-04-03T12:57:53;6.07;;;4.80;;
15476;SDS011;7840;42.702;23.296;2023-04-03T13:00:22;7.53;;;5.37;;
15476;SDS011;7840;42.702;23.296;2023-04-03T13:02:53;6.30;;;5.17;;
15476;SDS011;7840;42.702;23.296;2023-04-03T13:05:21;6.30;;;5.57;;
15476;SDS011;7840;42.702;23.296;2023-04-03T13:07:51;6.17;;;5.57;;
15476;SDS011;7840;42.702;23.296;2023-04-03T13:10:20;6.67;;;5.57;;
15476;SDS011;7840;42.702;23.296;2023-04-03T13:12:48;7.77;;;6.37;;
15476;SDS011;7840;42.702;23.296;2023-04-03T13:15:16;8.10;;;6.43;;
15476;SDS011;7840;42.702;23.296;2023-04-03T13:17:44;8.37;;;6.87;;
15476;SDS011;7840;42.702;23.296;2023-04-03T13:20:15;8.83;;;6.57;;
15476;SDS011;7840;42.702;23.296;2023-04-03T13:22:47;9.23;;;6.73;;
15476;SDS011;7840;42.702;23.296;2023-04-03T13:25:16;9.53;;;7.50;;
15476;SDS011;7840;42.702;23.296;2023-04-03T13:27:45;8.53;;;7.67;;
15476;SDS011;7840;42.702;23.296;2023-04-03T13:30:19;9.90;;;7.67;;
15476;SDS011;7840;42.702;23.296;2023-04-03T13:32:47;11.97;;;8.30;;
15476;SDS011;7840;42.702;23.296;2023-04-03T13:35:25;10.70;;;8.87;;
15476;SDS011;7840;42.702;23.296;2023-04-03T13:37:56;10.60;;;9.47;;
15476;SDS011;7840;42.702;23.296;2023-04-03T13:40:26;12.20;;;10.23;;
15476;SDS011;7840;42.702;23.296;2023-04-03T13:43:00;10.83;;;9.73;;
15476;SDS011;7840;42.702;23.296;2023-04-03T13:45:28;10.17;;;9.23;;
15476;SDS011;7840;42.702;23.296;2023-04-03T13:48:08;10.33;;;9.30;;
15476;SDS011;7840;42.702;23.296;2023-04-03T13:50:50;7.67;;;5.87;;
15476;SDS011;7840;42.702;23.296;2023-04-03T13:53:18;7.90;;;7.07;;
15476;SDS011;7840;42.702;23.296;2023-04-03T13:55:55;6.93;;;6.20;;
15476;SDS011;7840;42.702;23.296;2023-04-03T13:58:23;9.13;;;6.67;;
15476;SDS011;7840;42.702;23.296;2023-04-03T14:00:52;7.17;;;6.47;;
15476;SDS011;7840;42.702;23.296;2023-04-03T14:03:22;10.07;;;6.53;;
15476;SDS011;7840;42.702;23.296;2023-04-03T14:05:49;8.17;;;7.10;;
15476;SDS011;7840;42.702;23.296;2023-04-03T14:08:17;8.40;;;6.60;;
15476;SDS011;7840;42.702;23.296;2023-04-03T14:10:44;8.60;;;7.63;;
15476;SDS011;7840;42.702;23.296;2023-04-03T14:13:14;8.13;;;7.43;;
15476;SDS011;7840;42.702;23.296;2023-04-03T14:15:42;10.13;;;9.07;;
15476;SDS011;7840;42.702;23.296;2023-04-03T14:18:10;12.30;;;11.20;;
15476;SDS011;7840;42.702;23.296;2023-04-03T14:20:38;11.87;;;10.87;;
15476;SDS011;7840;42.702;23.296;2023-04-03T14:23:06;9.97;;;8.97;;
15476;SDS011;7840;42.702;23.296;2023-04-03T14:25:33;10.10;;;7.40;;
15476;SDS011;7840;42.702;23.296;2023-04-03T14:28:12;9.10;;;8.30;;
15476;SDS011;7840;42.702;23.296;2023-04-03T14:30:41;9.93;;;8.30;;
15476;SDS011;7840;42.702;23.296;2023-04-03T14:33:10;9.33;;;8.43;;
15476;SDS011;7840;42.702;23.296;2023-04-03T14:35:39;9.23;;;8.20;;
15476;SDS011;7840;42.702;23.296;2023-04-03T14:38:11;9.27;;;8.30;;
15476;SDS011;7840;42.702;23.296;2023-04-03T14:40:39;8.70;;;7.90;;
15476;SDS011;7840;42.702;23.296;2023-04-03T14:43:08;8.20;;;7.40;;
15476;SDS011;7840;42.702;23.296;2023-04-03T14:45:36;8.03;;;6.87;;
15476;SDS011;7840;42.702;23.296;2023-04-03T14:48:06;9.03;;;8.13;;
15476;SDS011;7840;42.702;23.296;2023-04-03T14:50:36;8.17;;;7.47;;
15476;SDS011;7840;42.702;23.296;2023-04-03T14:53:04;8.40;;;7.50;;
15476;SDS011;7840;42.702;23.296;2023-04-03T14:55:31;8.87;;;7.97;;
15476;SDS011;7840;42.702;23.296;2023-04-03T14:58:00;7.70;;;6.93;;
15476;SDS011;7840;42.702;23.296;2023-04-03T15:00:28;8.30;;;7.50;;